createdAt,value
2019-02-16T00:02:17.934Z,962.3
2019-02-16T00:05:23.894Z,962.3
2019-02-16T00:08:29.852Z,962.4
2019-02-16T00:11:35.730Z,962.4
2019-02-16T00:14:41.672Z,962.3
2019-02-16T00:17:47.545Z,962.4
2019-02-16T00:20:53.494Z,962.4
2019-02-16T00:24:09.215Z,962.4
2019-02-16T00:27:15.085Z,962.4
2019-02-16T00:30:21.201Z,962.4
2019-02-16T00:33:27.126Z,962.3
2019-02-16T00:36:33.122Z,962.4
2019-02-16T00:39:39.185Z,962.4
2019-02-16T00:42:45.057Z,962.3
2019-02-16T00:45:51.113Z,962.4
2019-02-16T00:48:56.975Z,962.4
2019-02-16T00:52:03.134Z,962.4
2019-02-16T00:55:09.048Z,962.2
2019-02-16T00:58:15.044Z,962.3
2019-02-16T01:01:21.011Z,962.3
2019-02-16T01:04:26.886Z,962.2
2019-02-16T01:07:32.829Z,962.2
2019-02-16T01:10:38.791Z,962.2
2019-02-16T01:13:44.751Z,962.2
2019-02-16T01:16:50.700Z,962.2
2019-02-16T01:19:56.573Z,962.1
2019-02-16T01:23:02.737Z,962.1
2019-02-16T01:26:08.682Z,962.2
2019-02-16T01:29:14.592Z,962.1
2019-02-16T01:32:20.462Z,962.1
2019-02-16T01:35:26.464Z,962.1
2019-02-16T01:38:35.057Z,962.1
2019-02-16T01:41:41.047Z,962
2019-02-16T01:44:47.062Z,962
2019-02-16T01:47:53.091Z,961.9
2019-02-16T01:50:59.136Z,961.9
2019-02-16T01:54:05.026Z,961.9
2019-02-16T01:57:11.188Z,961.9
2019-02-16T02:00:17.222Z,962
2019-02-16T02:03:23.098Z,961.9
2019-02-16T02:06:29.029Z,961.9
2019-02-16T02:09:34.996Z,962
2019-02-16T02:12:40.950Z,962
2019-02-16T02:15:46.823Z,962
2019-02-16T02:18:52.984Z,962
2019-02-16T02:21:58.938Z,962
2019-02-16T02:25:04.897Z,962
2019-02-16T02:28:10.851Z,962
2019-02-16T02:31:16.722Z,962.1
2019-02-16T02:34:22.700Z,962.1
2019-02-16T02:37:28.561Z,962.1
2019-02-16T02:40:34.593Z,962.1
2019-02-16T02:43:40.524Z,962.2
2019-02-16T02:46:46.514Z,962.1
2019-02-16T02:49:52.574Z,962.1
2019-02-16T02:52:58.454Z,962
2019-02-16T02:56:04.498Z,962.1
2019-02-16T02:59:10.459Z,962
2019-02-16T03:02:16.335Z,962
2019-02-16T03:05:22.301Z,962.1
2019-02-16T03:08:28.264Z,962.1
2019-02-16T03:11:34.348Z,962.1
2019-02-16T03:14:40.353Z,962.1
2019-02-16T03:17:46.469Z,962.1
2019-02-16T03:20:52.556Z,962.2
2019-02-16T03:23:58.646Z,962.2
2019-02-16T03:27:04.712Z,962.2
2019-02-16T03:30:10.665Z,962.2
2019-02-16T03:33:16.652Z,962.2
2019-02-16T03:36:22.595Z,962.2
2019-02-16T03:39:28.469Z,962.2
2019-02-16T03:42:34.569Z,962.2
2019-02-16T03:45:40.498Z,962.1
2019-02-16T03:48:46.535Z,962
2019-02-16T03:51:53.013Z,962.1
2019-02-16T03:54:58.971Z,962.1
2019-02-16T03:58:05.051Z,962.1
2019-02-16T04:01:11.177Z,962
2019-02-16T04:04:17.248Z,962.1
2019-02-16T04:07:25.710Z,961.9
2019-02-16T04:10:31.635Z,962
2019-02-16T04:13:37.496Z,961.9
2019-02-16T04:16:43.494Z,961.9
2019-02-16T04:19:49.514Z,961.9
2019-02-16T04:22:55.443Z,961.8
2019-02-16T04:26:01.318Z,961.9
2019-02-16T04:29:07.529Z,961.8
2019-02-16T04:32:13.453Z,961.8
2019-02-16T04:35:19.407Z,961.8
2019-02-16T04:38:25.349Z,961.8
2019-02-16T04:41:31.249Z,961.8
2019-02-16T04:44:37.186Z,961.9
2019-02-16T04:47:43.169Z,961.9
2019-02-16T04:50:49.247Z,961.9
2019-02-16T04:53:55.267Z,962
2019-02-16T04:57:01.382Z,962.1
2019-02-16T05:00:07.300Z,962.2
2019-02-16T05:03:13.181Z,962.2
2019-02-16T05:06:19.321Z,962.2
2019-02-16T05:09:25.209Z,962.3
2019-02-16T05:12:31.249Z,962.2
2019-02-16T05:15:37.144Z,962.3
2019-02-16T05:18:43.162Z,962.4
2019-02-16T05:21:49.244Z,962.4
2019-02-16T05:24:57.952Z,962.4
2019-02-16T05:28:04.314Z,962.4
2019-02-16T05:31:10.279Z,962.4
2019-02-16T05:34:16.236Z,962.4
2019-02-16T05:37:22.112Z,962.5
2019-02-16T05:40:28.046Z,962.6
2019-02-16T05:43:34.012Z,962.5
2019-02-16T05:46:39.902Z,962.6
2019-02-16T05:49:45.839Z,962.6
2019-02-16T05:52:55.775Z,962.6
2019-02-16T05:56:01.742Z,962.6
2019-02-16T05:59:09.484Z,962.7
2019-02-16T06:02:15.424Z,962.6
2019-02-16T06:05:21.414Z,962.6
2019-02-16T06:08:27.480Z,962.6
2019-02-16T06:11:33.504Z,962.5
2019-02-16T06:14:39.424Z,962.4
2019-02-16T06:17:45.405Z,962.4
2019-02-16T06:20:51.316Z,962.4
2019-02-16T06:23:57.328Z,962.5
2019-02-16T06:27:03.266Z,962.6
2019-02-16T06:30:09.242Z,962.6
2019-02-16T06:33:15.203Z,962.6
2019-02-16T06:36:21.121Z,962.6
2019-02-16T06:39:27.176Z,962.6
2019-02-16T06:42:35.493Z,962.6
2019-02-16T06:45:41.604Z,962.7
2019-02-16T06:48:47.573Z,962.8
2019-02-16T06:51:53.530Z,962.7
2019-02-16T06:54:59.481Z,962.8
2019-02-16T06:58:05.697Z,962.9
2019-02-16T07:01:11.639Z,962.9
2019-02-16T07:04:17.566Z,962.9
2019-02-16T07:07:23.454Z,962.9
2019-02-16T07:10:29.490Z,962.8
2019-02-16T07:13:35.389Z,962.8
2019-02-16T07:16:41.304Z,962.8
2019-02-16T07:19:47.264Z,962.8
2019-02-16T07:22:53.224Z,962.9
2019-02-16T07:25:59.324Z,963
2019-02-16T07:29:07.293Z,962.9
2019-02-16T07:32:13.252Z,963
2019-02-16T07:35:19.128Z,963
2019-02-16T07:38:25.175Z,963
2019-02-16T07:41:31.062Z,963.1
2019-02-16T07:44:39.902Z,963.2
2019-02-16T07:47:46.031Z,963.1
2019-02-16T07:50:51.979Z,963
2019-02-16T07:54:00.589Z,963
2019-02-16T07:57:06.616Z,963
2019-02-16T08:00:12.626Z,962.9
2019-02-16T08:03:18.534Z,962.8
2019-02-16T08:06:24.655Z,962.8
2019-02-16T08:09:30.505Z,962.8
2019-02-16T08:12:36.585Z,962.8
2019-02-16T08:15:42.565Z,962.8
2019-02-16T08:18:48.499Z,962.7
2019-02-16T08:21:54.548Z,962.7
2019-02-16T08:25:00.511Z,962.7
2019-02-16T08:28:06.608Z,962.7
2019-02-16T08:31:12.641Z,962.7
2019-02-16T08:34:18.542Z,962.6
2019-02-16T08:37:24.670Z,962.6
2019-02-16T08:40:30.625Z,962.7
2019-02-16T08:43:38.414Z,962.7
2019-02-16T08:46:44.429Z,962.7
2019-02-16T08:49:50.442Z,962.7
2019-02-16T08:52:56.321Z,962.8
2019-02-16T08:56:05.026Z,962.7
2019-02-16T08:59:11.093Z,962.8
2019-02-16T09:02:17.154Z,962.7
2019-02-16T09:05:23.121Z,962.6
2019-02-16T09:08:29.000Z,962.6
2019-02-16T09:11:34.929Z,962.5
2019-02-16T09:14:40.905Z,962.5
2019-02-16T09:17:46.779Z,962.5
2019-02-16T09:20:52.850Z,962.5
2019-02-16T09:24:00.635Z,962.5
2019-02-16T09:27:11.329Z,962.5
2019-02-16T09:30:17.484Z,962.5
2019-02-16T09:33:23.334Z,962.5
2019-02-16T09:36:29.377Z,962.4
2019-02-16T09:39:35.311Z,962.5
2019-02-16T09:42:41.298Z,962.4
2019-02-16T09:45:47.253Z,962.4
2019-02-16T09:48:53.118Z,962.4
2019-02-16T09:51:59.069Z,962.3
2019-02-16T09:55:04.943Z,962.4
2019-02-16T09:58:10.882Z,962.4
2019-02-16T10:01:16.754Z,962.3
2019-02-16T10:04:22.798Z,962.2
2019-02-16T10:07:30.972Z,962.2
2019-02-16T10:10:37.028Z,962.2
2019-02-16T10:13:44.738Z,962.1
2019-02-16T10:16:50.605Z,962.1
2019-02-16T10:19:56.597Z,962.1
2019-02-16T10:23:02.564Z,962
2019-02-16T10:26:08.564Z,962.1
2019-02-16T10:29:14.488Z,962.1
2019-02-16T10:32:20.436Z,962.1
2019-02-16T10:35:26.393Z,962
2019-02-16T10:38:32.266Z,962
2019-02-16T10:41:38.320Z,961.9
2019-02-16T10:44:44.204Z,961.9
2019-02-16T10:47:50.132Z,961.8
2019-02-16T10:50:56.192Z,961.8
2019-02-16T10:54:02.324Z,961.7
2019-02-16T10:57:08.216Z,961.7
2019-02-16T11:00:14.281Z,961.6
2019-02-16T11:03:20.341Z,961.6
2019-02-16T11:06:28.335Z,961.5
2019-02-16T11:09:34.313Z,961.5
2019-02-16T11:12:40.198Z,961.4
2019-02-16T11:15:46.128Z,961.4
2019-02-16T11:18:52.101Z,961.3
2019-02-16T11:21:58.387Z,961.3
2019-02-16T11:25:06.301Z,961.3
2019-02-16T11:28:12.223Z,961.3
2019-02-16T11:31:18.102Z,961.2
2019-02-16T11:34:24.038Z,961.2
2019-02-16T11:37:30.103Z,961.2
2019-02-16T11:40:36.060Z,961.2
2019-02-16T11:43:42.333Z,961.1
2019-02-16T11:46:48.342Z,961.2
2019-02-16T11:49:54.177Z,961.1
2019-02-16T11:53:00.205Z,961.1
2019-02-16T11:56:06.207Z,961.1
2019-02-16T11:59:12.234Z,961.1
2019-02-16T12:02:18.188Z,961
2019-02-16T12:05:24.062Z,961
2019-02-16T12:08:30.006Z,960.9
2019-02-16T12:11:35.968Z,961
2019-02-16T12:14:41.839Z,961
2019-02-16T12:17:47.828Z,961
2019-02-16T12:20:56.409Z,960.9
2019-02-16T12:24:02.366Z,960.9
2019-02-16T12:27:08.478Z,960.9
2019-02-16T12:30:14.492Z,960.9
2019-02-16T12:33:20.365Z,960.9
2019-02-16T12:36:26.411Z,960.9
2019-02-16T12:39:32.295Z,960.8
2019-02-16T12:42:38.264Z,960.8
2019-02-16T12:45:52.283Z,960.8
2019-02-16T12:49:01.107Z,960.7
2019-02-16T12:52:09.761Z,960.7
2019-02-16T12:55:19.151Z,960.7
2019-02-16T12:58:24.964Z,960.7
2019-02-16T13:01:30.885Z,960.6
2019-02-16T13:04:36.948Z,960.6
2019-02-16T13:07:42.919Z,960.6
2019-02-16T13:10:48.928Z,960.6
2019-02-16T13:13:54.858Z,960.6
2019-02-16T13:17:00.928Z,960.6
2019-02-16T13:20:06.954Z,960.6
2019-02-16T13:23:12.945Z,960.7
2019-02-16T13:26:18.998Z,960.6
2019-02-16T13:29:27.768Z,960.6
2019-02-16T13:32:33.777Z,960.5
2019-02-16T13:35:39.723Z,960.5
2019-02-16T13:38:45.684Z,960.5
2019-02-16T13:41:51.657Z,960.5
2019-02-16T13:44:57.529Z,960.5
2019-02-16T13:48:03.464Z,960.5
2019-02-16T13:51:09.629Z,960.5
2019-02-16T13:54:15.588Z,960.4
2019-02-16T13:57:21.547Z,960.4
2019-02-16T14:00:27.610Z,960.3
2019-02-16T14:03:33.597Z,960.3
2019-02-16T14:06:39.633Z,960.4
2019-02-16T14:09:45.517Z,960.3
2019-02-16T14:12:51.556Z,960.4
2019-02-16T14:15:57.447Z,960.4
2019-02-16T14:19:03.330Z,960.4
2019-02-16T14:22:09.331Z,960.4
2019-02-16T14:25:15.390Z,960.4
2019-02-16T14:28:21.263Z,960.4
2019-02-16T14:31:29.868Z,960.3
2019-02-16T14:34:35.755Z,960.3
2019-02-16T14:37:41.687Z,960.3
2019-02-16T14:40:50.620Z,960.2
2019-02-16T14:43:56.506Z,960.3
2019-02-16T14:47:02.536Z,960.2
2019-02-16T14:50:08.498Z,960.2
2019-02-16T14:53:14.557Z,960.2
2019-02-16T14:56:20.518Z,960.2
2019-02-16T14:59:26.480Z,960.2
2019-02-16T15:02:32.513Z,960.1
2019-02-16T15:05:38.501Z,960.2
2019-02-16T15:08:44.463Z,960.1
2019-02-16T15:11:50.335Z,960.1
2019-02-16T15:14:56.379Z,960.1
2019-02-16T15:18:04.445Z,960.2
2019-02-16T15:21:10.318Z,960.1
2019-02-16T15:24:16.320Z,960.2
2019-02-16T15:27:22.214Z,960.2
2019-02-16T15:30:30.666Z,960.2
2019-02-16T15:33:36.762Z,960.2
2019-02-16T15:36:42.708Z,960.2
2019-02-16T15:39:48.694Z,960.2
2019-02-16T15:42:54.636Z,960.2
2019-02-16T15:46:00.515Z,960.2
2019-02-16T15:49:06.552Z,960.3
2019-02-16T15:52:12.433Z,960.3
2019-02-16T15:55:18.471Z,960.2
2019-02-16T15:58:24.601Z,960.3
2019-02-16T16:01:30.674Z,960.3
2019-02-16T16:04:36.976Z,960.3
2019-02-16T16:07:42.849Z,960.3
2019-02-16T16:10:48.926Z,960.4
2019-02-16T16:13:54.843Z,960.4
2019-02-16T16:17:00.806Z,960.4
2019-02-16T16:20:06.716Z,960.4
2019-02-16T16:23:12.742Z,960.4
2019-02-16T16:26:20.835Z,960.5
2019-02-16T16:29:26.793Z,960.6
2019-02-16T16:32:32.736Z,960.6
2019-02-16T16:35:38.715Z,960.6
2019-02-16T16:38:44.729Z,960.7
2019-02-16T16:41:50.742Z,960.7
2019-02-16T16:44:56.648Z,960.7
2019-02-16T16:48:02.774Z,960.8
2019-02-16T16:51:08.722Z,960.8
2019-02-16T16:54:14.679Z,960.8
2019-02-16T16:57:20.641Z,960.8
2019-02-16T17:00:26.636Z,960.9
2019-02-16T17:03:32.597Z,960.9
2019-02-16T17:06:38.525Z,960.9
2019-02-16T17:09:44.489Z,960.9
2019-02-16T17:12:50.384Z,960.9
2019-02-16T17:15:56.399Z,961
2019-02-16T17:19:02.364Z,961.1
2019-02-16T17:22:08.346Z,961
2019-02-16T17:25:14.433Z,961
2019-02-16T17:28:20.352Z,961
2019-02-16T17:31:26.307Z,961
2019-02-16T17:34:32.375Z,961
2019-02-16T17:37:38.324Z,961
2019-02-16T17:40:44.283Z,961.1
2019-02-16T17:43:50.334Z,961.1
2019-02-16T17:46:57.070Z,961
2019-02-16T17:50:03.292Z,961
2019-02-16T17:53:09.173Z,961.1
2019-02-16T17:56:17.799Z,961
2019-02-16T17:59:23.743Z,961.1
2019-02-16T18:02:29.726Z,961.1
2019-02-16T18:05:35.781Z,961.1
2019-02-16T18:08:41.829Z,961.2
2019-02-16T18:11:47.733Z,961.1
2019-02-16T18:14:53.652Z,961.2
2019-02-16T18:17:59.710Z,961.2
2019-02-16T18:21:05.684Z,961.2
2019-02-16T18:24:11.859Z,961.2
2019-02-16T18:27:17.842Z,961.2
2019-02-16T18:30:23.900Z,961.2
2019-02-16T18:33:29.834Z,961.2
2019-02-16T18:36:35.772Z,961.2
2019-02-16T18:39:41.729Z,961.2
2019-02-16T18:42:47.839Z,961.2
2019-02-16T18:45:53.860Z,961.2
2019-02-16T18:48:59.828Z,961.3
2019-02-16T18:52:05.783Z,961.2
2019-02-16T18:55:12.549Z,961.2
2019-02-16T18:58:18.632Z,961.2
2019-02-16T19:01:24.587Z,961.2
2019-02-16T19:04:33.425Z,961.2
2019-02-16T19:07:39.531Z,961.2
2019-02-16T19:10:45.542Z,961.2
2019-02-16T19:13:51.502Z,961.2
2019-02-16T19:16:57.465Z,961.1
2019-02-16T19:20:03.406Z,961.2
2019-02-16T19:23:09.413Z,961.1
2019-02-16T19:26:15.428Z,961.2
2019-02-16T19:29:21.516Z,961.2
2019-02-16T19:32:27.367Z,961.3
2019-02-16T19:35:33.410Z,961.3
2019-02-16T19:38:39.470Z,961.3
2019-02-16T19:41:45.531Z,961.4
2019-02-16T19:44:51.594Z,961.4
2019-02-16T19:47:57.531Z,961.4
2019-02-16T19:51:03.615Z,961.4
2019-02-16T19:54:09.598Z,961.4
2019-02-16T19:57:15.535Z,961.4
2019-02-16T20:00:31.639Z,961.5
2019-02-16T20:03:37.591Z,961.4
2019-02-16T20:06:43.574Z,961.5
2019-02-16T20:09:50.134Z,961.4
2019-02-16T20:12:56.087Z,961.4
2019-02-16T20:16:02.199Z,961.4
2019-02-16T20:19:08.072Z,961.5
2019-02-16T20:22:14.097Z,961.6
2019-02-16T20:25:20.080Z,961.6
2019-02-16T20:28:25.991Z,961.6
2019-02-16T20:31:31.877Z,961.6
2019-02-16T20:34:37.782Z,961.6
2019-02-16T20:37:43.782Z,961.6
2019-02-16T20:40:49.829Z,961.7
2019-02-16T20:43:56.007Z,961.7
2019-02-16T20:47:01.872Z,961.6
2019-02-16T20:50:10.687Z,961.7
2019-02-16T20:53:16.551Z,961.6
2019-02-16T20:56:22.496Z,961.6
2019-02-16T20:59:28.457Z,961.6
2019-02-16T21:02:34.430Z,961.6
2019-02-16T21:05:40.491Z,961.6
2019-02-16T21:08:46.551Z,961.6
2019-02-16T21:11:52.607Z,961.6
2019-02-16T21:14:58.614Z,961.5
2019-02-16T21:18:04.640Z,961.5
2019-02-16T21:21:10.499Z,961.5
2019-02-16T21:24:16.560Z,961.6
2019-02-16T21:27:24.777Z,961.6
2019-02-16T21:30:30.835Z,961.6
2019-02-16T21:33:37.710Z,961.6
2019-02-16T21:36:43.586Z,961.6
2019-02-16T21:39:50.138Z,961.6
2019-02-16T21:42:56.099Z,961.6
2019-02-16T21:46:02.064Z,961.6
2019-02-16T21:49:08.021Z,961.6
2019-02-16T21:52:13.990Z,961.6
2019-02-16T21:55:22.543Z,961.5
2019-02-16T21:58:28.569Z,961.5
2019-02-16T22:01:34.533Z,961.5
2019-02-16T22:04:40.697Z,961.6
2019-02-16T22:07:46.564Z,961.6
2019-02-16T22:10:52.612Z,961.5
2019-02-16T22:14:01.293Z,961.5
2019-02-16T22:17:07.336Z,961.5
2019-02-16T22:20:13.221Z,961.6
2019-02-16T22:23:19.317Z,961.5
2019-02-16T22:26:25.528Z,961.5
2019-02-16T22:29:31.460Z,961.5
2019-02-16T22:32:37.525Z,961.4
2019-02-16T22:35:43.487Z,961.5
2019-02-16T22:38:49.422Z,961.4
2019-02-16T22:41:55.691Z,961.4
2019-02-16T22:45:01.749Z,961.4
2019-02-16T22:48:08.011Z,961.4
2019-02-16T22:51:13.981Z,961.4
2019-02-16T22:54:19.844Z,961.4
2019-02-16T22:57:25.983Z,961.4
2019-02-16T23:00:31.968Z,961.4
2019-02-16T23:03:37.900Z,961.4
2019-02-16T23:06:43.873Z,961.4
2019-02-16T23:09:49.836Z,961.4
2019-02-16T23:12:55.805Z,961.4
2019-02-16T23:16:04.636Z,961.4
2019-02-16T23:19:10.688Z,961.3
2019-02-16T23:22:16.557Z,961.3
2019-02-16T23:25:22.548Z,961.3
2019-02-16T23:28:38.281Z,961.3
2019-02-16T23:31:44.768Z,961.3
2019-02-16T23:34:50.636Z,961.2
2019-02-16T23:37:56.585Z,961.2
2019-02-16T23:41:02.451Z,961.2
2019-02-16T23:44:11.199Z,961.2
2019-02-16T23:47:17.127Z,961.3
2019-02-16T23:50:23.012Z,961.3
2019-02-16T23:53:29.046Z,961.3
2019-02-16T23:56:35.112Z,961.3
2019-02-16T23:59:41.077Z,961.3
